DH4SBM Weather Reports


Display with metric or nautical units.
time (UTC)temp
F
wind
direction
speed
MPH
gust
MPH
rain 1hr
in
rain 24hr
in
rain mn
in
humidity
%
barometer
mb
20210412215234 35 212 0.0 3.0 0.00 0.23 0.23 77 1030.0
20210412214012 35 212 2.0 4.0 0.00 0.23 0.23 76 1029.9
20210412213023 36 197 0.0 0.0 0.00 0.23 0.23 74 1029.8
20210412212050 36 197 0.0 0.0 0.00 0.23 0.23 74 1029.8
20210412211021 36 197 2.0 3.0 0.00 0.23 0.23 74 1029.9
20210412210115 36 196 1.0 3.0 0.00 0.33 0.23 74 1029.8
20210412205440 37 196 2.0 3.0 0.00 0.33 0.23 73 1029.8
20210412204019 37 198 1.0 3.0 0.00 0.33 0.23 72 1029.8
20210412203040 37 200 3.0 4.0 0.00 0.33 0.23 71 1029.7
20210412202454 38 244 3.0 4.0 0.00 0.33 0.23 70 1029.7
20210412201004 38 15 0.0 1.0 0.00 0.33 0.23 70 1029.7
20210412200232 38 15 0.0 1.0 0.00 0.38 0.23 69 1029.7
20210412195654 38 15 0.0 0.0 0.00 0.38 0.23 69 1029.6
20210412194019 38 15 0.0 1.0 0.00 0.38 0.23 69 1029.7
20210412193020 39 15 1.0 2.0 0.00 0.38 0.23 68 1029.6
20210412192420 39 5 2.0 3.0 0.00 0.38 0.23 67 1029.7
20210412191020 39 360 1.0 2.0 0.00 0.38 0.23 66 1029.6
20210412190248 40 360 2.0 3.0 0.00 0.40 0.23 65 1029.5
20210412185309 40 355 2.0 3.0 0.00 0.40 0.23 65 1029.4
20210412184020 40 360 3.0 4.0 0.00 0.40 0.23 64 1029.3
20210412183145 41 5 5.0 6.0 0.00 0.40 0.23 60 1029.1
20210412182320 42 344 2.0 4.0 0.00 0.40 0.23 59 1029.0
20210412181018 42 333 4.0 6.0 0.00 0.40 0.23 58 1028.8
20210412175537 43 348 3.0 6.0 0.00 0.41 0.23 57 1028.5
20210412174016 43 345 4.0 8.0 0.00 0.41 0.23 57 1028.4
20210412173103 44 355 4.0 7.0 0.00 0.41 0.23 58 1028.4
20210412172352 44 311 5.0 9.0 0.00 0.41 0.23 57 1028.4
20210412171030 44 340 5.0 10.0 0.00 0.41 0.23 56 1028.3
20210412170158 44 337 5.0 9.0 0.00 0.41 0.23 55 1028.5
20210412165123 44 329 2.0 6.0 0.00 0.41 0.23 55 1028.3
20210412164025 44 340 4.0 8.0 0.00 0.41 0.23 53 1028.2
20210412163050 44 337 4.0 7.0 0.00 0.41 0.23 51 1028.2
20210412162221 44 338 5.0 8.0 0.00 0.41 0.23 54 1028.1
20210412161012 44 355 2.0 4.0 0.00 0.41 0.23 53 1028.0
20210412160109 45 303 3.0 9.0 0.00 0.43 0.23 52 1027.8
20210412155401 45 315 1.0 5.0 0.00 0.43 0.23 52 1027.8
20210412154023 45 244 2.0 8.0 0.00 0.43 0.23 51 1027.9
20210412153109 44 273 4.0 9.0 0.00 0.43 0.23 52 1027.8
20210412152322 44 317 6.0 10.0 0.00 0.43 0.23 52 1027.8
20210412151021 44 348 6.0 9.0 0.00 0.43 0.23 50 1027.8
20210412150131 45 277 4.0 7.0 0.00 0.43 0.23 52 1027.8
20210412145357 44 305 2.0 5.0 0.00 0.43 0.23 53 1027.7
20210412144023 44 355 4.0 9.0 0.00 0.43 0.23 54 1027.7
20210412143134 44 360 6.0 11.0 0.00 0.43 0.23 54 1027.7
20210412142237 44 304 8.0 12.0 0.00 0.43 0.23 54 1027.5
20210412141011 44 330 4.0 9.0 0.00 0.43 0.23 54 1027.4
20210412140128 44 299 5.0 9.0 0.00 0.44 0.23 54 1027.6
20210412135343 44 302 4.0 10.0 0.00 0.44 0.23 56 1027.7
20210412134012 44 217 4.0 11.0 0.00 0.44 0.23 58 1027.8
20210412133021 45 9 1.0 8.0 0.00 0.44 0.23 55 1027.6
20210412132059 45 262 5.0 7.0 0.00 0.44 0.23 57 1027.6
20210412131021 44 319 6.0 9.0 0.00 0.44 0.23 57 1027.5
20210412125849 43 303 4.0 9.0 0.00 0.44 0.23 59 1027.7
20210412124020 43 333 6.0 10.0 0.00 0.44 0.23 59 1027.6
20210412122538 43 295 3.0 8.0 0.00 0.44 0.23 57 1027.4
20210412121024 43 324 5.0 9.0 0.00 0.44 0.23 57 1027.4
20210412115827 42 332 5.0 10.0 0.00 0.44 0.23 59 1027.3
20210412114019 42 341 4.0 11.0 0.00 0.44 0.23 62 1027.2
20210412113020 41 355 6.0 12.0 0.00 0.44 0.23 65 1027.2
20210412112218 41 5 4.0 10.0 0.00 0.44 0.23 65 1027.2
20210412111020 41 313 4.0 12.0 0.00 0.44 0.23 69 1027.2
20210412110038 40 306 4.0 9.0 0.00 0.44 0.23 68 1027.1
20210412105346 40 350 5.0 10.0 0.00 0.44 0.23 72 1027.1
20210412104036 40 309 6.0 11.0 0.00 0.44 0.23 71 1027.2
20210412103041 40 321 8.0 11.0 0.00 0.44 0.23 73 1027.1
20210412102339 40 304 6.0 11.0 0.00 0.44 0.23 74 1027.0
20210412101014 40 297 10.0 13.0 0.00 0.44 0.23 77 1026.9
20210412100124 39 289 7.0 13.0 0.00 0.44 0.23 79 1026.8
20210412095245 39 360 8.0 15.0 0.00 0.44 0.23 79 1026.7
20210412094023 39 313 5.0 11.0 0.00 0.44 0.23 82 1026.7
20210412093018 39 317 5.0 13.0 0.00 0.44 0.23 83 1026.5
20210412092202 39 305 3.0 12.0 0.00 0.44 0.23 85 1026.3
20210412091101 38 323 5.0 12.0 0.00 0.44 0.23 86 1026.2
20210412090117 38 337 8.0 13.0 0.00 0.44 0.23 88 1025.9
20210412085223 38 345 6.0 11.0 0.00 0.44 0.23 89 1025.8
20210412084041 38 313 5.0 10.0 0.00 0.44 0.23 90 1025.8
20210412083027 37 323 7.0 11.0 0.00 0.44 0.23 91 1025.8
20210412082319 37 323 7.0 10.0 0.00 0.44 0.23 92 1025.9
20210412081012 37 321 4.0 10.0 0.00 0.44 0.23 92 1025.7
20210412080017 37 339 7.0 11.0 0.00 0.44 0.23 93 1025.5
20210412075123 36 13 3.0 8.0 0.00 0.44 0.23 93 1025.3
20210412074017 36 338 3.0 5.0 0.00 0.44 0.23 93 1025.2
20210412073034 36 350 2.0 3.0 0.00 0.44 0.23 93 1025.1
20210412072427 36 327 4.0 6.0 0.00 0.44 0.23 93 1024.8
20210412071020 36 339 3.0 5.0 0.01 0.44 0.23 93 1024.9
20210412070022 35 355 1.0 4.0 0.01 0.44 0.23 93 1024.7
20210412065159 35 360 2.0 4.0 0.01 0.44 0.23 93 1024.6
20210412064021 35 355 3.0 8.0 0.02 0.44 0.23 93 1024.3
20210412062336 34 340 2.0 4.0 0.02 0.44 0.23 92 1023.9
20210412061030 34 40 0.0 1.0 0.02 0.43 0.22 92 1023.7
20210412060011 34 40 0.0 2.0 0.02 0.43 0.22 92 1023.6
20210412055057 33 41 2.0 4.0 0.02 0.43 0.22 92 1023.4
20210412054012 33 44 1.0 3.0 0.02 0.43 0.22 92 1023.4
20210412052339 34 344 3.0 5.0 0.02 0.43 0.21 91 1023.1
20210412051017 34 360 5.0 9.0 0.02 0.43 0.21 91 1022.8
20210412050447 34 11 5.0 10.0 0.02 0.42 0.20 92 1022.7
20210412045240 35 355 5.0 9.0 0.02 0.42 0.20 92 1022.5
20210412044026 35 346 6.0 9.0 0.02 0.41 0.20 92 1022.3
20210412043142 35 321 9.0 14.0 0.02 0.41 0.20 92 1021.9
20210412042136 35 340 5.0 10.0 0.02 0.41 0.20 92 1021.9
20210412041026 35 338 8.0 11.0 0.02 0.40 0.19 92 1021.5
20210412040020 35 343 6.0 8.0 0.02 0.40 0.19 92 1021.0
20210412035111 35 345 7.0 10.0 0.02 0.39 0.18 92 1021.0
20210412034023 36 355 6.0 9.0 0.02 0.39 0.18 92 1021.1
20210412033030 35 334 4.0 8.0 0.02 0.39 0.17 91 1020.7
20210412032102 35 326 5.0 6.0 0.02 0.39 0.17 91 1020.6
20210412031010 35 346 4.0 9.0 0.02 0.39 0.17 91 1020.6
20210412030010 35 15 7.0 11.0 0.02 0.38 0.17 91 1020.4
20210412025234 36 344 5.0 9.0 0.02 0.38 0.17 91 1020.5
20210412024023 36 355 4.0 10.0 0.02 0.38 0.17 91 1020.3
20210412023045 36 355 7.0 10.0 0.01 0.37 0.16 91 1020.4
20210412022242 36 318 6.0 13.0 0.01 0.36 0.15 91 1020.0
20210412021020 36 33 7.0 13.0 0.02 0.36 0.15 91 1019.9
20210412020022 36 5 5.0 12.0 0.02 0.36 0.15 91 1019.6
20210412015101 36 355 6.0 10.0 0.02 0.36 0.15 91 1019.5
20210412014010 36 5 10.0 14.0 0.02 0.36 0.15 91 1019.3
20210412013209 37 326 8.0 14.0 0.03 0.36 0.15 91 1019.2
20210412012247 37 348 9.0 15.0 0.02 0.35 0.14 91 1019.1
20210412011024 37 11 7.0 13.0 0.02 0.35 0.13 91 1018.8
20210412010024 38 338 4.0 10.0 0.02 0.35 0.13 91 1018.6
20210412005834 38 341 8.0 16.0 0.02 0.34 0.13 91 1018.4
20210412004022 38 11 7.0 13.0 0.02 0.34 0.13 91 1017.9
20210412002601 39 40 8.0 15.0 0.03 0.33 0.12 92 1017.7
20210412001034 39 5 9.0 12.0 0.03 0.32 0.11 92 1017.5
20210412000030 39 5 9.0 13.0 0.04 0.32 0.11 92 1017.8
20210411235235 40 5 6.0 12.0 0.05 0.32 0.11 92 1017.7
20210411234014 40 13 6.0 11.0 0.05 0.31 0.10 92 1017.6
20210411233135 40 328 8.0 13.0 0.06 0.31 0.10 92 1017.7
20210411232529 40 350 8.0 14.0 0.06 0.30 0.09 92 1017.5
20210411231022 41 326 6.0 15.0 0.06 0.29 0.08 92 1017.4
20210411230023 41 355 4.0 10.0 0.07 0.28 0.07 92 1017.2
20210411225052 41 346 6.0 10.0 0.10 0.28 0.06 92 1017.2
20210411224010 41 344 5.0 8.0 0.13 0.27 0.06 92 1017.0
20210411223231 41 341 7.0 11.0 0.13 0.26 0.05 92 1016.9
20210411222351 41 333 7.0 12.0 0.13 0.25 0.04 92 1016.8
20210411221026 41 310 9.0 12.0 0.11 0.23 0.02 92 1016.5
20210411220238 41 308 5.0 10.0 0.12 0.23 0.02 92 1016.4